MSC Agadir — VRLC2 — position and weather

sailwx.info

Track history (hours):
 
Tides and Currents Weather Stations Pressure Air Temp Water Temp Dewpoint Dewpoint Depression Visibility Wind Speed Wind Dir Waves Ship Positions

MSC Agadir

Last reported at 2018-Jun-19 11:39 UTC. Time now 2018-Jun-19 12:45 UTC.
Position S 23°55' W 046°21'.

Length 299 m; draft 9.4 m.

Type: Ship (hazmat cat D). MMSI: 477001100.

Date/timePositionNaut miles runAvg speedWind from/ knotsBaromVisibWave heightAir tempDewpointWater temp
2018-Jun-19 11:39S 23°55' W 046°21'2 5.5
2018-Jun-19 11:17S 23°56' W 046°19'2 7.7
2018-Jun-19 11:00S 23°58' W 046°18'3 5.6
2018-Jun-19 10:30S 23°60' W 046°20'4 7.4
2018-Jun-19 10:00S 24°03' W 046°21'4 7.7
2018-Jun-19 09:30S 24°07' W 046°22'4 8.3
2018-Jun-19 09:00S 24°11' W 046°19'0 0.2
2018-Jun-19 08:30S 24°10' W 046°19'0 0.0
2018-Jun-19 08:00S 24°10' W 046°19'0 0.0
2018-Jun-19 07:30S 24°10' W 046°19'0 0.0
2018-Jun-19 07:00S 24°10' W 046°19'0 0.0
2018-Jun-19 06:30S 24°10' W 046°19'0 0.0
2018-Jun-19 06:00S 24°10' W 046°19'0 0.0
2018-Jun-19 05:30S 24°10' W 046°19'0 0.0
2018-Jun-19 04:54S 24°10' W 046°19'0 0.0
2018-Jun-19 04:30S 24°10' W 046°19'0 0.0
2018-Jun-19 04:00S 24°10' W 046°19'0 0.0
2018-Jun-19 03:30S 24°10' W 046°19'0 0.0
2018-Jun-19 03:00S 24°10' W 046°19'0 0.0
2018-Jun-19 02:30S 24°10' W 046°19'0 0.2
2018-Jun-19 02:00S 24°11' W 046°19'0 0.1
2018-Jun-19 00:48S 24°10' W 046°19'0 0.2
2018-Jun-19 00:24S 24°11' W 046°19'0 0.2
2018-Jun-19 00:00S 24°11' W 046°19'0 0.2
2018-Jun-18 23:30S 24°11' W 046°19'0 0.2
2018-Jun-18 22:48S 24°10' W 046°19'0 0.1
2018-Jun-18 22:30S 24°10' W 046°19'0 0.0
2018-Jun-18 22:00S 24°10' W 046°19'0 0.0
2018-Jun-18 21:27S 24°10' W 046°19'0 0.0
2018-Jun-18 21:00S 24°10' W 046°19'0 0.1
2018-Jun-18 20:30S 24°10' W 046°19'0 0.0
2018-Jun-18 20:00S 24°10' W 046°19'0 0.0
2018-Jun-18 19:24S 24°10' W 046°19'0 0.0
2018-Jun-18 19:00S 24°10' W 046°19'0 0.0
2018-Jun-18 18:30S 24°10' W 046°19'0 0.0
2018-Jun-18 18:00S 24°10' W 046°19'0 0.0
2018-Jun-18 17:30S 24°10' W 046°19'0 0.0
2018-Jun-18 16:54S 24°10' W 046°19'0 0.0
2018-Jun-18 16:30S 24°10' W 046°19'0 0.0
2018-Jun-18 16:00S 24°10' W 046°19'0 0.0
2018-Jun-18 15:12S 24°10' W 046°19'0 0.1
2018-Jun-18 14:54S 24°10' W 046°19'0 0.1
2018-Jun-18 14:30S 24°10' W 046°19'0 0.0
2018-Jun-18 14:00S 24°10' W 046°19'0 0.0
2018-Jun-18 13:30S 24°10' W 046°19'0 0.0
2018-Jun-18 13:00S 24°10' W 046°19'0 0.0
2018-Jun-18 12:30S 24°10' W 046°19'0 0.0
2018-Jun-18 12:00S 24°11' W 046°19'0 0.0
2018-Jun-18 11:25S 24°11' W 046°19'0 0.0
2018-Jun-18 11:00S 24°10' W 046°19'0 0.0
2018-Jun-18 10:30S 24°10' W 046°19'0 0.2
2018-Jun-18 10:00S 24°10' W 046°19'2 4.4
2018-Jun-18 09:30S 24°12' W 046°21'4 7.4
2018-Jun-18 09:00S 24°14' W 046°24'4 7.5
2018-Jun-18 08:30S 24°17' W 046°26'4 7.5
2018-Jun-18 08:00S 24°21' W 046°28'4 7.6
2018-Jun-18 07:30S 24°24' W 046°31'510.4
2018-Jun-18 07:00S 24°28' W 046°34'611.0
2018-Jun-18 06:30S 24°33' W 046°37'611.0
2018-Jun-18 06:00S 24°37' W 046°40'611.0
2018-Jun-18 05:30S 24°42' W 046°44'510.9
2018-Jun-18 05:00S 24°46' W 046°47'  
Track history (hours):
 
Tides and Currents Weather Stations Pressure Air Temp Water Temp Dewpoint Dewpoint Depression Visibility Wind Speed Wind Dir Waves Ship Positions

MSC Agadir

Last reported at 2018-Jun-19 11:39 UTC. Time now 2018-Jun-19 12:45 UTC.
Position S 23°55' W 046°21'.

Length 299 m; draft 9.4 m.

Type: Ship (hazmat cat D). MMSI: 477001100.

Date/timePositionNaut miles runAvg speedWind from/ knotsBaromVisibWave heightAir tempDewpointWater temp
2018-Jun-19 11:39S 23°55' W 046°21'2 5.5
2018-Jun-19 11:17S 23°56' W 046°19'2 7.7
2018-Jun-19 11:00S 23°58' W 046°18'3 5.6
2018-Jun-19 10:30S 23°60' W 046°20'4 7.4
2018-Jun-19 10:00S 24°03' W 046°21'4 7.7
2018-Jun-19 09:30S 24°07' W 046°22'4 8.3
2018-Jun-19 09:00S 24°11' W 046°19'0 0.2
2018-Jun-19 08:30S 24°10' W 046°19'0 0.0
2018-Jun-19 08:00S 24°10' W 046°19'0 0.0
2018-Jun-19 07:30S 24°10' W 046°19'0 0.0
2018-Jun-19 07:00S 24°10' W 046°19'0 0.0
2018-Jun-19 06:30S 24°10' W 046°19'0 0.0
2018-Jun-19 06:00S 24°10' W 046°19'0 0.0
2018-Jun-19 05:30S 24°10' W 046°19'0 0.0
2018-Jun-19 04:54S 24°10' W 046°19'0 0.0
2018-Jun-19 04:30S 24°10' W 046°19'0 0.0
2018-Jun-19 04:00S 24°10' W 046°19'0 0.0
2018-Jun-19 03:30S 24°10' W 046°19'0 0.0
2018-Jun-19 03:00S 24°10' W 046°19'0 0.0
2018-Jun-19 02:30S 24°10' W 046°19'0 0.2
2018-Jun-19 02:00S 24°11' W 046°19'0 0.1
2018-Jun-19 00:48S 24°10' W 046°19'0 0.2
2018-Jun-19 00:24S 24°11' W 046°19'0 0.2
2018-Jun-19 00:00S 24°11' W 046°19'0 0.2
2018-Jun-18 23:30S 24°11' W 046°19'0 0.2
2018-Jun-18 22:48S 24°10' W 046°19'0 0.1
2018-Jun-18 22:30S 24°10' W 046°19'0 0.0
2018-Jun-18 22:00S 24°10' W 046°19'0 0.0
2018-Jun-18 21:27S 24°10' W 046°19'0 0.0
2018-Jun-18 21:00S 24°10' W 046°19'0 0.1
2018-Jun-18 20:30S 24°10' W 046°19'0 0.0
2018-Jun-18 20:00S 24°10' W 046°19'0 0.0
2018-Jun-18 19:24S 24°10' W 046°19'0 0.0
2018-Jun-18 19:00S 24°10' W 046°19'0 0.0
2018-Jun-18 18:30S 24°10' W 046°19'0 0.0
2018-Jun-18 18:00S 24°10' W 046°19'0 0.0
2018-Jun-18 17:30S 24°10' W 046°19'0 0.0
2018-Jun-18 16:54S 24°10' W 046°19'0 0.0
2018-Jun-18 16:30S 24°10' W 046°19'0 0.0
2018-Jun-18 16:00S 24°10' W 046°19'0 0.0
2018-Jun-18 15:12S 24°10' W 046°19'0 0.1
2018-Jun-18 14:54S 24°10' W 046°19'0 0.1
2018-Jun-18 14:30S 24°10' W 046°19'0 0.0
2018-Jun-18 14:00S 24°10' W 046°19'0 0.0
2018-Jun-18 13:30S 24°10' W 046°19'0 0.0
2018-Jun-18 13:00S 24°10' W 046°19'0 0.0
2018-Jun-18 12:30S 24°10' W 046°19'0 0.0
2018-Jun-18 12:00S 24°11' W 046°19'0 0.0
2018-Jun-18 11:25S 24°11' W 046°19'0 0.0
2018-Jun-18 11:00S 24°10' W 046°19'0 0.0
2018-Jun-18 10:30S 24°10' W 046°19'0 0.2
2018-Jun-18 10:00S 24°10' W 046°19'2 4.4
2018-Jun-18 09:30S 24°12' W 046°21'4 7.4
2018-Jun-18 09:00S 24°14' W 046°24'4 7.5
2018-Jun-18 08:30S 24°17' W 046°26'4 7.5
2018-Jun-18 08:00S 24°21' W 046°28'4 7.6
2018-Jun-18 07:30S 24°24' W 046°31'510.4
2018-Jun-18 07:00S 24°28' W 046°34'611.0
2018-Jun-18 06:30S 24°33' W 046°37'611.0
2018-Jun-18 06:00S 24°37' W 046°40'611.0
2018-Jun-18 05:30S 24°42' W 046°44'510.9
2018-Jun-18 05:00S 24°46' W 046°47'  

Dump ship's entire track history